sensor_id;sensor_type;location;lat;lon;timestamp;P1;durP1;ratioP1;P2;durP2;ratioP2
22040;SDS011;11184;52.444;13.578;2022-09-21T00:00:27;11.88;;;7.60;;
22040;SDS011;11184;52.444;13.578;2022-09-21T00:03:13;10.35;;;8.05;;
22040;SDS011;11184;52.444;13.578;2022-09-21T00:06:02;12.10;;;8.50;;
22040;SDS011;11184;52.444;13.578;2022-09-21T00:08:47;13.13;;;7.93;;
22040;SDS011;11184;52.444;13.578;2022-09-21T00:11:32;9.57;;;8.73;;
22040;SDS011;11184;52.444;13.578;2022-09-21T00:14:17;15.73;;;8.93;;
22040;SDS011;11184;52.444;13.578;2022-09-21T00:17:02;10.35;;;8.63;;
22040;SDS011;11184;52.444;13.578;2022-09-21T00:19:47;13.63;;;9.80;;
22040;SDS011;11184;52.444;13.578;2022-09-21T00:22:32;10.18;;;8.95;;
22040;SDS011;11184;52.444;13.578;2022-09-21T00:25:17;8.02;;;7.35;;
22040;SDS011;11184;52.444;13.578;2022-09-21T00:28:02;16.05;;;8.77;;
22040;SDS011;11184;52.444;13.578;2022-09-21T00:30:47;10.07;;;9.18;;
22040;SDS011;11184;52.444;13.578;2022-09-21T00:33:34;9.48;;;8.52;;
22040;SDS011;11184;52.444;13.578;2022-09-21T00:36:19;8.93;;;8.15;;
22040;SDS011;11184;52.444;13.578;2022-09-21T00:39:04;10.82;;;8.90;;
22040;SDS011;11184;52.444;13.578;2022-09-21T00:41:49;10.18;;;8.82;;
22040;SDS011;11184;52.444;13.578;2022-09-21T00:44:36;8.95;;;7.68;;
22040;SDS011;11184;52.444;13.578;2022-09-21T00:47:21;8.75;;;7.95;;
22040;SDS011;11184;52.444;13.578;2022-09-21T00:50:08;9.38;;;8.40;;
22040;SDS011;11184;52.444;13.578;2022-09-21T00:52:54;10.23;;;8.65;;
22040;SDS011;11184;52.444;13.578;2022-09-21T00:55:41;9.95;;;8.38;;
22040;SDS011;11184;52.444;13.578;2022-09-21T00:58:34;10.13;;;9.10;;
22040;SDS011;11184;52.444;13.578;2022-09-21T01:01:21;10.48;;;9.52;;
22040;SDS011;11184;52.444;13.578;2022-09-21T01:04:06;10.35;;;9.48;;
22040;SDS011;11184;52.444;13.578;2022-09-21T01:06:51;8.73;;;7.85;;
22040;SDS011;11184;52.444;13.578;2022-09-21T01:09:37;8.50;;;7.80;;
22040;SDS011;11184;52.444;13.578;2022-09-21T01:15:32;8.23;;;7.43;;
22040;SDS011;11184;52.444;13.578;2022-09-21T01:27:08;11.63;;;7.88;;
22040;SDS011;11184;52.444;13.578;2022-09-21T01:30:11;8.43;;;7.63;;
22040;SDS011;11184;52.444;13.578;2022-09-21T01:33:00;8.32;;;7.63;;
22040;SDS011;11184;52.444;13.578;2022-09-21T01:35:47;10.02;;;7.72;;
22040;SDS011;11184;52.444;13.578;2022-09-21T01:38:37;8.02;;;7.15;;
22040;SDS011;11184;52.444;13.578;2022-09-21T01:41:25;7.60;;;6.97;;
22040;SDS011;11184;52.444;13.578;2022-09-21T01:44:12;6.75;;;6.05;;
22040;SDS011;11184;52.444;13.578;2022-09-21T01:46:59;8.70;;;7.25;;
22040;SDS011;11184;52.444;13.578;2022-09-21T01:49:45;9.50;;;6.75;;
22040;SDS011;11184;52.444;13.578;2022-09-21T01:52:33;9.23;;;6.45;;
22040;SDS011;11184;52.444;13.578;2022-09-21T01:55:24;8.23;;;6.85;;
22040;SDS011;11184;52.444;13.578;2022-09-21T01:58:13;8.25;;;6.90;;
22040;SDS011;11184;52.444;13.578;2022-09-21T02:00:59;8.35;;;7.50;;
22040;SDS011;11184;52.444;13.578;2022-09-21T02:03:51;10.63;;;7.13;;
22040;SDS011;11184;52.444;13.578;2022-09-21T02:06:39;9.38;;;7.03;;
22040;SDS011;11184;52.444;13.578;2022-09-21T02:09:24;10.07;;;8.10;;
22040;SDS011;11184;52.444;13.578;2022-09-21T02:12:09;8.95;;;7.80;;
22040;SDS011;11184;52.444;13.578;2022-09-21T02:14:53;10.60;;;8.38;;
22040;SDS011;11184;52.444;13.578;2022-09-21T02:17:46;8.25;;;7.45;;
22040;SDS011;11184;52.444;13.578;2022-09-21T02:20:39;10.55;;;9.48;;
22040;SDS011;11184;52.444;13.578;2022-09-21T02:23:35;8.38;;;7.53;;
22040;SDS011;11184;52.444;13.578;2022-09-21T02:26:23;8.05;;;7.20;;
22040;SDS011;11184;52.444;13.578;2022-09-21T02:29:18;8.68;;;7.85;;
22040;SDS011;11184;52.444;13.578;2022-09-21T02:34:52;11.32;;;10.18;;
22040;SDS011;11184;52.444;13.578;2022-09-21T02:37:44;11.52;;;7.38;;
22040;SDS011;11184;52.444;13.578;2022-09-21T02:40:33;8.70;;;7.53;;
22040;SDS011;11184;52.444;13.578;2022-09-21T02:46:24;9.68;;;7.80;;
22040;SDS011;11184;52.444;13.578;2022-09-21T02:49:11;11.98;;;9.70;;
22040;SDS011;11184;52.444;13.578;2022-09-21T02:51:57;9.02;;;8.23;;
22040;SDS011;11184;52.444;13.578;2022-09-21T02:54:43;10.30;;;8.82;;
22040;SDS011;11184;52.444;13.578;2022-09-21T02:57:30;12.25;;;10.95;;
22040;SDS011;11184;52.444;13.578;2022-09-21T03:00:15;13.45;;;9.00;;
22040;SDS011;11184;52.444;13.578;2022-09-21T03:02:59;13.95;;;9.00;;
22040;SDS011;11184;52.444;13.578;2022-09-21T03:05:45;9.25;;;8.40;;
22040;SDS011;11184;52.444;13.578;2022-09-21T03:08:31;13.10;;;8.93;;
22040;SDS011;11184;52.444;13.578;2022-09-21T03:11:16;13.10;;;8.95;;
22040;SDS011;11184;52.444;13.578;2022-09-21T03:14:01;9.65;;;7.82;;
22040;SDS011;11184;52.444;13.578;2022-09-21T03:16:51;11.52;;;8.07;;
22040;SDS011;11184;52.444;13.578;2022-09-21T03:19:37;9.20;;;8.30;;
22040;SDS011;11184;52.444;13.578;2022-09-21T03:22:21;9.48;;;8.60;;
22040;SDS011;11184;52.444;13.578;2022-09-21T03:25:07;10.68;;;9.63;;
22040;SDS011;11184;52.444;13.578;2022-09-21T03:27:53;10.50;;;9.57;;
22040;SDS011;11184;52.444;13.578;2022-09-21T03:30:38;14.00;;;10.10;;
22040;SDS011;11184;52.444;13.578;2022-09-21T03:33:23;10.75;;;9.73;;
22040;SDS011;11184;52.444;13.578;2022-09-21T03:36:08;11.02;;;10.02;;
22040;SDS011;11184;52.444;13.578;2022-09-21T03:38:53;9.90;;;9.00;;
22040;SDS011;11184;52.444;13.578;2022-09-21T03:41:38;10.32;;;9.23;;
22040;SDS011;11184;52.444;13.578;2022-09-21T03:44:23;11.57;;;9.88;;
22040;SDS011;11184;52.444;13.578;2022-09-21T03:47:08;11.25;;;10.07;;
22040;SDS011;11184;52.444;13.578;2022-09-21T03:49:53;13.25;;;9.75;;
22040;SDS011;11184;52.444;13.578;2022-09-21T03:52:38;12.27;;;9.93;;
22040;SDS011;11184;52.444;13.578;2022-09-21T03:55:22;13.90;;;10.10;;
22040;SDS011;11184;52.444;13.578;2022-09-21T03:58:07;9.05;;;7.57;;
22040;SDS011;11184;52.444;13.578;2022-09-21T04:00:52;11.32;;;9.88;;
22040;SDS011;11184;52.444;13.578;2022-09-21T04:03:37;9.40;;;8.48;;
22040;SDS011;11184;52.444;13.578;2022-09-21T04:06:21;14.10;;;9.10;;
22040;SDS011;11184;52.444;13.578;2022-09-21T04:09:06;11.77;;;9.13;;
22040;SDS011;11184;52.444;13.578;2022-09-21T04:11:51;9.55;;;8.50;;
22040;SDS011;11184;52.444;13.578;2022-09-21T04:14:36;16.35;;;9.82;;
22040;SDS011;11184;52.444;13.578;2022-09-21T04:17:21;9.77;;;8.15;;
22040;SDS011;11184;52.444;13.578;2022-09-21T04:20:06;10.20;;;9.23;;
22040;SDS011;11184;52.444;13.578;2022-09-21T04:22:51;10.85;;;9.13;;
22040;SDS011;11184;52.444;13.578;2022-09-21T04:25:36;14.13;;;9.43;;
22040;SDS011;11184;52.444;13.578;2022-09-21T04:28:20;11.70;;;10.50;;
22040;SDS011;11184;52.444;13.578;2022-09-21T04:31:06;17.38;;;12.43;;
22040;SDS011;11184;52.444;13.578;2022-09-21T04:33:51;13.65;;;10.68;;
22040;SDS011;11184;52.444;13.578;2022-09-21T04:36:36;15.45;;;11.27;;
22040;SDS011;11184;52.444;13.578;2022-09-21T04:39:21;12.05;;;10.85;;
22040;SDS011;11184;52.444;13.578;2022-09-21T04:42:06;12.85;;;11.77;;
22040;SDS011;11184;52.444;13.578;2022-09-21T04:44:52;15.27;;;12.10;;
22040;SDS011;11184;52.444;13.578;2022-09-21T04:47:36;11.85;;;10.60;;
22040;SDS011;11184;52.444;13.578;2022-09-21T04:50:21;13.70;;;12.32;;
22040;SDS011;11184;52.444;13.578;2022-09-21T04:53:06;14.73;;;11.85;;
22040;SDS011;11184;52.444;13.578;2022-09-21T04:55:51;14.45;;;12.25;;
22040;SDS011;11184;52.444;13.578;2022-09-21T04:58:35;13.05;;;10.77;;
22040;SDS011;11184;52.444;13.578;2022-09-21T05:01:20;11.73;;;10.35;;
22040;SDS011;11184;52.444;13.578;2022-09-21T05:04:05;15.18;;;9.90;;
22040;SDS011;11184;52.444;13.578;2022-09-21T05:06:49;11.48;;;10.45;;
22040;SDS011;11184;52.444;13.578;2022-09-21T05:09:34;12.10;;;10.93;;
22040;SDS011;11184;52.444;13.578;2022-09-21T05:12:38;9.60;;;8.80;;
22040;SDS011;11184;52.444;13.578;2022-09-21T05:15:24;12.13;;;10.80;;
22040;SDS011;11184;52.444;13.578;2022-09-21T05:18:09;14.38;;;9.98;;
22040;SDS011;11184;52.444;13.578;2022-09-21T05:20:54;17.83;;;10.30;;
22040;SDS011;11184;52.444;13.578;2022-09-21T05:23:39;12.57;;;11.20;;
22040;SDS011;11184;52.444;13.578;2022-09-21T05:26:24;13.73;;;11.07;;
22040;SDS011;11184;52.444;13.578;2022-09-21T05:29:08;13.23;;;11.35;;
22040;SDS011;11184;52.444;13.578;2022-09-21T05:31:56;12.80;;;11.63;;
22040;SDS011;11184;52.444;13.578;2022-09-21T05:34:53;13.00;;;11.60;;
22040;SDS011;11184;52.444;13.578;2022-09-21T05:37:44;25.63;;;13.25;;
22040;SDS011;11184;52.444;13.578;2022-09-21T05:40:30;15.43;;;12.13;;
22040;SDS011;11184;52.444;13.578;2022-09-21T05:43:16;15.27;;;13.15;;
22040;SDS011;11184;52.444;13.578;2022-09-21T05:46:02;13.70;;;12.25;;
22040;SDS011;11184;52.444;13.578;2022-09-21T05:48:51;13.93;;;11.95;;
22040;SDS011;11184;52.444;13.578;2022-09-21T05:51:39;15.27;;;13.93;;
22040;SDS011;11184;52.444;13.578;2022-09-21T05:57:12;16.35;;;13.35;;
22040;SDS011;11184;52.444;13.578;2022-09-21T06:00:21;19.83;;;16.02;;
22040;SDS011;11184;52.444;13.578;2022-09-21T06:03:19;20.67;;;18.83;;
22040;SDS011;11184;52.444;13.578;2022-09-21T06:06:07;22.65;;;19.77;;
22040;SDS011;11184;52.444;13.578;2022-09-21T06:08:52;24.73;;;18.25;;
22040;SDS011;11184;52.444;13.578;2022-09-21T06:11:36;19.42;;;17.73;;
22040;SDS011;11184;52.444;13.578;2022-09-21T06:14:21;20.05;;;17.20;;
22040;SDS011;11184;52.444;13.578;2022-09-21T06:17:08;22.90;;;17.23;;
22040;SDS011;11184;52.444;13.578;2022-09-21T06:19:53;17.75;;;16.10;;
22040;SDS011;11184;52.444;13.578;2022-09-21T06:22:38;17.13;;;15.70;;
22040;SDS011;11184;52.444;13.578;2022-09-21T06:25:22;16.75;;;15.35;;
22040;SDS011;11184;52.444;13.578;2022-09-21T06:28:08;15.98;;;14.38;;
22040;SDS011;11184;52.444;13.578;2022-09-21T06:30:53;14.70;;;13.25;;
22040;SDS011;11184;52.444;13.578;2022-09-21T06:33:38;19.10;;;13.57;;
22040;SDS011;11184;52.444;13.578;2022-09-21T06:36:23;17.40;;;14.48;;
22040;SDS011;11184;52.444;13.578;2022-09-21T06:39:07;15.20;;;14.00;;
22040;SDS011;11184;52.444;13.578;2022-09-21T06:41:52;13.68;;;11.68;;
22040;SDS011;11184;52.444;13.578;2022-09-21T06:44:37;15.23;;;13.85;;
22040;SDS011;11184;52.444;13.578;2022-09-21T06:47:22;12.63;;;11.57;;
22040;SDS011;11184;52.444;13.578;2022-09-21T06:50:06;14.02;;;12.15;;
22040;SDS011;11184;52.444;13.578;2022-09-21T06:52:51;12.27;;;11.13;;
22040;SDS011;11184;52.444;13.578;2022-09-21T06:55:36;11.60;;;10.60;;
22040;SDS011;11184;52.444;13.578;2022-09-21T06:58:20;17.15;;;11.88;;
22040;SDS011;11184;52.444;13.578;2022-09-21T07:01:05;12.18;;;11.05;;
22040;SDS011;11184;52.444;13.578;2022-09-21T07:03:50;13.25;;;11.93;;
22040;SDS011;11184;52.444;13.578;2022-09-21T07:06:36;12.20;;;11.05;;
22040;SDS011;11184;52.444;13.578;2022-09-21T07:09:20;13.23;;;9.88;;
22040;SDS011;11184;52.444;13.578;2022-09-21T07:12:05;16.08;;;10.13;;
22040;SDS011;11184;52.444;13.578;2022-09-21T07:14:51;14.25;;;9.77;;
22040;SDS011;11184;52.444;13.578;2022-09-21T07:17:36;10.80;;;9.95;;
22040;SDS011;11184;52.444;13.578;2022-09-21T07:20:21;14.73;;;9.65;;
22040;SDS011;11184;52.444;13.578;2022-09-21T07:23:13;23.45;;;9.40;;
22040;SDS011;11184;52.444;13.578;2022-09-21T07:26:05;16.00;;;10.13;;
22040;SDS011;11184;52.444;13.578;2022-09-21T07:28:51;11.63;;;9.00;;
22040;SDS011;11184;52.444;13.578;2022-09-21T07:31:35;11.32;;;8.68;;
22040;SDS011;11184;52.444;13.578;2022-09-21T07:34:20;19.40;;;9.93;;
22040;SDS011;11184;52.444;13.578;2022-09-21T07:37:05;13.77;;;8.32;;
22040;SDS011;11184;52.444;13.578;2022-09-21T07:39:50;13.10;;;8.48;;
22040;SDS011;11184;52.444;13.578;2022-09-21T07:42:35;9.60;;;6.82;;
22040;SDS011;11184;52.444;13.578;2022-09-21T07:45:20;7.97;;;6.80;;
22040;SDS011;11184;52.444;13.578;2022-09-21T07:48:05;7.78;;;6.97;;
22040;SDS011;11184;52.444;13.578;2022-09-21T07:50:51;12.60;;;6.55;;
22040;SDS011;11184;52.444;13.578;2022-09-21T07:53:36;7.20;;;4.22;;
22040;SDS011;11184;52.444;13.578;2022-09-21T07:56:21;6.22;;;5.60;;
22040;SDS011;11184;52.444;13.578;2022-09-21T07:59:06;8.27;;;4.80;;
22040;SDS011;11184;52.444;13.578;2022-09-21T08:01:50;6.35;;;5.53;;
22040;SDS011;11184;52.444;13.578;2022-09-21T08:04:35;6.45;;;4.60;;
22040;SDS011;11184;52.444;13.578;2022-09-21T08:07:20;8.68;;;4.55;;
22040;SDS011;11184;52.444;13.578;2022-09-21T08:10:04;8.75;;;4.50;;
22040;SDS011;11184;52.444;13.578;2022-09-21T08:12:49;3.63;;;2.97;;
22040;SDS011;11184;52.444;13.578;2022-09-21T08:15:34;6.35;;;4.18;;
22040;SDS011;11184;52.444;13.578;2022-09-21T08:18:19;5.25;;;3.95;;
22040;SDS011;11184;52.444;13.578;2022-09-21T08:21:04;6.47;;;4.25;;
22040;SDS011;11184;52.444;13.578;2022-09-21T08:23:48;4.88;;;3.47;;
22040;SDS011;11184;52.444;13.578;2022-09-21T08:26:33;7.40;;;3.72;;
22040;SDS011;11184;52.444;13.578;2022-09-21T08:29:18;9.07;;;4.13;;
22040;SDS011;11184;52.444;13.578;2022-09-21T08:32:03;5.03;;;2.72;;
22040;SDS011;11184;52.444;13.578;2022-09-21T08:34:47;5.10;;;3.95;;
22040;SDS011;11184;52.444;13.578;2022-09-21T08:37:32;8.23;;;4.03;;
22040;SDS011;11184;52.444;13.578;2022-09-21T08:40:19;4.10;;;3.67;;
22040;SDS011;11184;52.444;13.578;2022-09-21T08:43:06;4.28;;;2.92;;
22040;SDS011;11184;52.444;13.578;2022-09-21T08:45:53;6.07;;;3.42;;
22040;SDS011;11184;52.444;13.578;2022-09-21T08:48:39;5.68;;;2.95;;
22040;SDS011;11184;52.444;13.578;2022-09-21T08:51:29;6.72;;;3.50;;
22040;SDS011;11184;52.444;13.578;2022-09-21T08:54:35;4.78;;;3.47;;
22040;SDS011;11184;52.444;13.578;2022-09-21T08:57:25;5.72;;;3.83;;
22040;SDS011;11184;52.444;13.578;2022-09-21T09:00:13;4.68;;;3.97;;
22040;SDS011;11184;52.444;13.578;2022-09-21T09:03:06;8.45;;;3.80;;
22040;SDS011;11184;52.444;13.578;2022-09-21T09:06:04;10.85;;;3.90;;
22040;SDS011;11184;52.444;13.578;2022-09-21T09:08:55;7.93;;;4.32;;
22040;SDS011;11184;52.444;13.578;2022-09-21T09:11:56;6.50;;;3.63;;
22040;SDS011;11184;52.444;13.578;2022-09-21T09:14:49;8.55;;;3.83;;
22040;SDS011;11184;52.444;13.578;2022-09-21T09:20:44;7.00;;;4.70;;
22040;SDS011;11184;52.444;13.578;2022-09-21T09:23:43;5.57;;;4.93;;
22040;SDS011;11184;52.444;13.578;2022-09-21T09:26:31;4.97;;;3.67;;
22040;SDS011;11184;52.444;13.578;2022-09-21T09:29:20;11.55;;;3.28;;
22040;SDS011;11184;52.444;13.578;2022-09-21T09:32:08;4.65;;;2.88;;
22040;SDS011;11184;52.444;13.578;2022-09-21T09:34:58;5.03;;;2.45;;
22040;SDS011;11184;52.444;13.578;2022-09-21T09:37:45;5.97;;;2.47;;
22040;SDS011;11184;52.444;13.578;2022-09-21T09:40:35;7.20;;;2.92;;
22040;SDS011;11184;52.444;13.578;2022-09-21T09:43:41;4.63;;;3.20;;
22040;SDS011;11184;52.444;13.578;2022-09-21T09:46:31;5.60;;;3.00;;
22040;SDS011;11184;52.444;13.578;2022-09-21T09:52:07;3.80;;;3.17;;
22040;SDS011;11184;52.444;13.578;2022-09-21T09:54:52;5.50;;;2.80;;
22040;SDS011;11184;52.444;13.578;2022-09-21T09:57:37;4.75;;;2.50;;
22040;SDS011;11184;52.444;13.578;2022-09-21T10:00:21;2.75;;;1.80;;
22040;SDS011;11184;52.444;13.578;2022-09-21T10:03:14;4.88;;;2.08;;
22040;SDS011;11184;52.444;13.578;2022-09-21T10:05:59;3.72;;;2.10;;
22040;SDS011;11184;52.444;13.578;2022-09-21T10:08:44;2.28;;;1.88;;
22040;SDS011;11184;52.444;13.578;2022-09-21T10:11:33;5.65;;;1.50;;
22040;SDS011;11184;52.444;13.578;2022-09-21T10:14:23;4.88;;;1.67;;
22040;SDS011;11184;52.444;13.578;2022-09-21T10:17:08;5.05;;;1.90;;
22040;SDS011;11184;52.444;13.578;2022-09-21T10:20:00;2.30;;;1.65;;
22040;SDS011;11184;52.444;13.578;2022-09-21T10:22:46;11.15;;;1.92;;
22040;SDS011;11184;52.444;13.578;2022-09-21T10:25:31;3.65;;;3.03;;
22040;SDS011;11184;52.444;13.578;2022-09-21T10:28:21;3.22;;;1.58;;
22040;SDS011;11184;52.444;13.578;2022-09-21T10:31:17;4.07;;;1.65;;
22040;SDS011;11184;52.444;13.578;2022-09-21T10:36:49;4.10;;;1.48;;
22040;SDS011;11184;52.444;13.578;2022-09-21T10:39:34;2.17;;;1.40;;
22040;SDS011;11184;52.444;13.578;2022-09-21T10:42:25;2.83;;;1.63;;
22040;SDS011;11184;52.444;13.578;2022-09-21T10:45:16;1.25;;;0.80;;
22040;SDS011;11184;52.444;13.578;2022-09-21T10:50:49;1.50;;;0.90;;
22040;SDS011;11184;52.444;13.578;2022-09-21T10:56:06;2.42;;;1.10;;
22040;SDS011;11184;52.444;13.578;2022-09-21T11:01:57;1.77;;;1.00;;
22040;SDS011;11184;52.444;13.578;2022-09-21T11:04:44;3.83;;;0.95;;
22040;SDS011;11184;52.444;13.578;2022-09-21T11:07:31;4.90;;;0.90;;
22040;SDS011;11184;52.444;13.578;2022-09-21T11:10:20;3.13;;;1.02;;
22040;SDS011;11184;52.444;13.578;2022-09-21T11:19:13;3.60;;;1.35;;
22040;SDS011;11184;52.444;13.578;2022-09-21T11:24:51;8.07;;;1.27;;
22040;SDS011;11184;52.444;13.578;2022-09-21T11:27:38;0.80;;;0.50;;
22040;SDS011;11184;52.444;13.578;2022-09-21T11:30:23;7.43;;;1.10;;
22040;SDS011;11184;52.444;13.578;2022-09-21T11:33:19;1.58;;;0.50;;
22040;SDS011;11184;52.444;13.578;2022-09-21T11:36:16;1.42;;;0.70;;
22040;SDS011;11184;52.444;13.578;2022-09-21T11:39:13;4.88;;;0.70;;
22040;SDS011;11184;52.444;13.578;2022-09-21T12:06:44;1.17;;;0.50;;
22040;SDS011;11184;52.444;13.578;2022-09-21T12:11:55;0.93;;;0.40;;
22040;SDS011;11184;52.444;13.578;2022-09-21T12:14:56;0.88;;;0.50;;
22040;SDS011;11184;52.444;13.578;2022-09-21T12:18:32;1.58;;;0.40;;
22040;SDS011;11184;52.444;13.578;2022-09-21T12:20:54;1.65;;;0.40;;
22040;SDS011;11184;52.444;13.578;2022-09-21T12:23:44;1.52;;;0.47;;
22040;SDS011;11184;52.444;13.578;2022-09-21T12:26:32;4.50;;;0.50;;
22040;SDS011;11184;52.444;13.578;2022-09-21T12:29:27;1.52;;;0.98;;
22040;SDS011;11184;52.444;13.578;2022-09-21T12:35:02;3.28;;;0.50;;
22040;SDS011;11184;52.444;13.578;2022-09-21T12:37:53;1.42;;;0.88;;
22040;SDS011;11184;52.444;13.578;2022-09-21T12:40:45;2.40;;;0.70;;
22040;SDS011;11184;52.444;13.578;2022-09-21T12:43:38;2.53;;;0.70;;
22040;SDS011;11184;52.444;13.578;2022-09-21T12:46:48;13.10;;;11.70;;
22040;SDS011;11184;52.444;13.578;2022-09-21T12:49:30;6.80;;;1.70;;
22040;SDS011;11184;52.444;13.578;2022-09-21T12:52:20;2.42;;;1.27;;
22040;SDS011;11184;52.444;13.578;2022-09-21T12:55:22;1.60;;;0.50;;
22040;SDS011;11184;52.444;13.578;2022-09-21T13:04:18;2.40;;;0.57;;
22040;SDS011;11184;52.444;13.578;2022-09-21T13:07:25;0.65;;;0.30;;
22040;SDS011;11184;52.444;13.578;2022-09-21T13:10:17;0.93;;;0.65;;
22040;SDS011;11184;52.444;13.578;2022-09-21T13:13:02;0.35;;;0.32;;
22040;SDS011;11184;52.444;13.578;2022-09-21T13:15:50;1.13;;;0.75;;
22040;SDS011;11184;52.444;13.578;2022-09-21T13:18:37;2.35;;;0.70;;
22040;SDS011;11184;52.444;13.578;2022-09-21T13:21:26;0.30;;;0.30;;
22040;SDS011;11184;52.444;13.578;2022-09-21T13:24:24;1.02;;;0.43;;
22040;SDS011;11184;52.444;13.578;2022-09-21T13:27:09;1.52;;;0.75;;
22040;SDS011;11184;52.444;13.578;2022-09-21T13:30:17;2.33;;;0.50;;
22040;SDS011;11184;52.444;13.578;2022-09-21T13:33:00;0.98;;;0.70;;
22040;SDS011;11184;52.444;13.578;2022-09-21T13:41:30;0.70;;;0.55;;
22040;SDS011;11184;52.444;13.578;2022-09-21T13:47:30;0.85;;;0.50;;
22040;SDS011;11184;52.444;13.578;2022-09-21T13:53:24;2.15;;;0.65;;
22040;SDS011;11184;52.444;13.578;2022-09-21T13:56:19;1.65;;;0.60;;
22040;SDS011;11184;52.444;13.578;2022-09-21T13:59:05;1.98;;;0.90;;
22040;SDS011;11184;52.444;13.578;2022-09-21T14:01:51;0.95;;;0.57;;
22040;SDS011;11184;52.444;13.578;2022-09-21T14:04:35;2.53;;;0.57;;
22040;SDS011;11184;52.444;13.578;2022-09-21T14:07:20;1.58;;;0.60;;
22040;SDS011;11184;52.444;13.578;2022-09-21T14:10:15;0.85;;;0.50;;
22040;SDS011;11184;52.444;13.578;2022-09-21T14:13:02;1.05;;;0.60;;
22040;SDS011;11184;52.444;13.578;2022-09-21T14:15:50;0.40;;;0.38;;
22040;SDS011;11184;52.444;13.578;2022-09-21T14:18:35;1.15;;;0.40;;
22040;SDS011;11184;52.444;13.578;2022-09-21T14:21:20;2.95;;;0.90;;
22040;SDS011;11184;52.444;13.578;2022-09-21T14:26:52;1.85;;;0.80;;
22040;SDS011;11184;52.444;13.578;2022-09-21T14:29:43;1.30;;;0.70;;
22040;SDS011;11184;52.444;13.578;2022-09-21T14:32:31;0.85;;;0.70;;
22040;SDS011;11184;52.444;13.578;2022-09-21T14:35:19;1.67;;;0.82;;
22040;SDS011;11184;52.444;13.578;2022-09-21T14:38:06;2.20;;;0.50;;
22040;SDS011;11184;52.444;13.578;2022-09-21T14:41:04;2.53;;;0.88;;
22040;SDS011;11184;52.444;13.578;2022-09-21T14:43:51;2.60;;;0.98;;
22040;SDS011;11184;52.444;13.578;2022-09-21T14:49:46;0.68;;;0.55;;
22040;SDS011;11184;52.444;13.578;2022-09-21T15:04:12;0.95;;;0.60;;
22040;SDS011;11184;52.444;13.578;2022-09-21T15:07:06;1.00;;;0.60;;
22040;SDS011;11184;52.444;13.578;2022-09-21T15:16:17;3.30;;;0.57;;
22040;SDS011;11184;52.444;13.578;2022-09-21T15:19:14;1.30;;;0.93;;
22040;SDS011;11184;52.444;13.578;2022-09-21T15:25:01;4.15;;;0.52;;
22040;SDS011;11184;52.444;13.578;2022-09-21T15:27:45;0.50;;;0.40;;
22040;SDS011;11184;52.444;13.578;2022-09-21T15:30:31;0.85;;;0.50;;
22040;SDS011;11184;52.444;13.578;2022-09-21T15:33:15;4.10;;;0.95;;
22040;SDS011;11184;52.444;13.578;2022-09-21T15:36:01;0.93;;;0.40;;
22040;SDS011;11184;52.444;13.578;2022-09-21T15:38:47;1.23;;;0.65;;
22040;SDS011;11184;52.444;13.578;2022-09-21T15:41:36;2.20;;;0.82;;
22040;SDS011;11184;52.444;13.578;2022-09-21T15:44:27;0.75;;;0.50;;
22040;SDS011;11184;52.444;13.578;2022-09-21T15:47:20;1.55;;;0.50;;
22040;SDS011;11184;52.444;13.578;2022-09-21T15:50:05;1.13;;;0.70;;
22040;SDS011;11184;52.444;13.578;2022-09-21T15:52:57;0.77;;;0.50;;
22040;SDS011;11184;52.444;13.578;2022-09-21T15:55:45;4.93;;;0.73;;
22040;SDS011;11184;52.444;13.578;2022-09-21T15:58:31;1.73;;;0.63;;
22040;SDS011;11184;52.444;13.578;2022-09-21T16:01:20;0.80;;;0.50;;
22040;SDS011;11184;52.444;13.578;2022-09-21T16:04:06;2.60;;;0.60;;
22040;SDS011;11184;52.444;13.578;2022-09-21T16:06:59;2.40;;;0.95;;
22040;SDS011;11184;52.444;13.578;2022-09-21T16:09:45;3.80;;;0.70;;
22040;SDS011;11184;52.444;13.578;2022-09-21T16:12:33;2.67;;;0.50;;
22040;SDS011;11184;52.444;13.578;2022-09-21T16:15:24;2.95;;;0.65;;
22040;SDS011;11184;52.444;13.578;2022-09-21T16:18:27;1.30;;;0.63;;
22040;SDS011;11184;52.444;13.578;2022-09-21T16:21:16;0.73;;;0.40;;
22040;SDS011;11184;52.444;13.578;2022-09-21T16:24:07;1.67;;;0.50;;
22040;SDS011;11184;52.444;13.578;2022-09-21T16:27:00;0.70;;;0.55;;
22040;SDS011;11184;52.444;13.578;2022-09-21T16:29:45;2.25;;;1.70;;
22040;SDS011;11184;52.444;13.578;2022-09-21T16:32:32;1.00;;;0.60;;
22040;SDS011;11184;52.444;13.578;2022-09-21T16:35:21;4.38;;;1.05;;
22040;SDS011;11184;52.444;13.578;2022-09-21T16:38:11;3.28;;;1.20;;
22040;SDS011;11184;52.444;13.578;2022-09-21T16:40:58;3.38;;;0.60;;
22040;SDS011;11184;52.444;13.578;2022-09-21T16:43:44;4.68;;;1.05;;
22040;SDS011;11184;52.444;13.578;2022-09-21T16:46:29;1.92;;;1.00;;
22040;SDS011;11184;52.444;13.578;2022-09-21T16:49:18;2.38;;;1.50;;
22040;SDS011;11184;52.444;13.578;2022-09-21T16:52:04;3.20;;;1.45;;
22040;SDS011;11184;52.444;13.578;2022-09-21T16:54:50;1.50;;;1.10;;
22040;SDS011;11184;52.444;13.578;2022-09-21T16:57:35;1.85;;;0.80;;
22040;SDS011;11184;52.444;13.578;2022-09-21T17:00:20;2.38;;;1.27;;
22040;SDS011;11184;52.444;13.578;2022-09-21T17:03:05;2.83;;;1.63;;
22040;SDS011;11184;52.444;13.578;2022-09-21T17:05:50;3.30;;;1.60;;
22040;SDS011;11184;52.444;13.578;2022-09-21T17:08:34;3.03;;;1.85;;
22040;SDS011;11184;52.444;13.578;2022-09-21T17:11:20;2.67;;;1.85;;
22040;SDS011;11184;52.444;13.578;2022-09-21T17:14:05;5.43;;;2.15;;
22040;SDS011;11184;52.444;13.578;2022-09-21T17:16:51;4.28;;;2.95;;
22040;SDS011;11184;52.444;13.578;2022-09-21T17:19:37;5.32;;;1.67;;
22040;SDS011;11184;52.444;13.578;2022-09-21T17:22:23;4.20;;;2.50;;
22040;SDS011;11184;52.444;13.578;2022-09-21T17:25:07;2.47;;;1.50;;
22040;SDS011;11184;52.444;13.578;2022-09-21T17:27:53;3.85;;;1.90;;
22040;SDS011;11184;52.444;13.578;2022-09-21T17:30:40;4.22;;;1.98;;
22040;SDS011;11184;52.444;13.578;2022-09-21T17:33:27;3.60;;;2.22;;
22040;SDS011;11184;52.444;13.578;2022-09-21T17:36:13;1.52;;;1.20;;
22040;SDS011;11184;52.444;13.578;2022-09-21T17:38:58;11.18;;;2.45;;
22040;SDS011;11184;52.444;13.578;2022-09-21T17:41:48;7.07;;;1.80;;
22040;SDS011;11184;52.444;13.578;2022-09-21T17:47:27;3.88;;;2.28;;
22040;SDS011;11184;52.444;13.578;2022-09-21T17:52:57;5.07;;;2.00;;
22040;SDS011;11184;52.444;13.578;2022-09-21T17:59:03;5.35;;;2.85;;
22040;SDS011;11184;52.444;13.578;2022-09-21T18:01:49;3.38;;;2.78;;
22040;SDS011;11184;52.444;13.578;2022-09-21T18:04:34;6.13;;;4.20;;
22040;SDS011;11184;52.444;13.578;2022-09-21T18:07:20;3.53;;;2.53;;
22040;SDS011;11184;52.444;13.578;2022-09-21T18:10:07;3.08;;;2.42;;
22040;SDS011;11184;52.444;13.578;2022-09-21T18:13:02;3.38;;;2.08;;
22040;SDS011;11184;52.444;13.578;2022-09-21T18:18:43;5.53;;;4.55;;
22040;SDS011;11184;52.444;13.578;2022-09-21T18:21:29;5.10;;;2.83;;
22040;SDS011;11184;52.444;13.578;2022-09-21T18:24:18;4.03;;;3.22;;
22040;SDS011;11184;52.444;13.578;2022-09-21T18:27:03;6.63;;;3.90;;
22040;SDS011;11184;52.444;13.578;2022-09-21T18:29:48;5.18;;;3.15;;
22040;SDS011;11184;52.444;13.578;2022-09-21T18:32:35;3.80;;;2.50;;
22040;SDS011;11184;52.444;13.578;2022-09-21T18:35:36;5.03;;;2.95;;
22040;SDS011;11184;52.444;13.578;2022-09-21T18:38:30;6.45;;;4.50;;
22040;SDS011;11184;52.444;13.578;2022-09-21T18:41:19;5.20;;;4.20;;